sensor_id;sensor_type;location;lat;lon;timestamp;temperature;humidity
26272;DHT22;13997;48.902;12.472;2023-06-14T00:01:17;409.60;2355.20
26272;DHT22;13997;48.902;12.472;2023-06-14T00:03:45;384.90;2329.60
26272;DHT22;13997;48.902;12.472;2023-06-14T00:06:13;384.90;2329.60
26272;DHT22;13997;48.902;12.472;2023-06-14T00:08:38;409.60;2355.20
26272;DHT22;13997;48.902;12.472;2023-06-14T00:11:05;384.90;2329.60
26272;DHT22;13997;48.902;12.472;2023-06-14T00:13:31;384.90;2329.60
26272;DHT22;13997;48.902;12.472;2023-06-14T00:15:57;384.90;2329.60
26272;DHT22;13997;48.902;12.472;2023-06-14T00:18:23;384.90;2329.60
26272;DHT22;13997;48.902;12.472;2023-06-14T00:20:55;384.90;2329.60
26272;DHT22;13997;48.902;12.472;2023-06-14T00:23:21;384.90;2329.60
26272;DHT22;13997;48.902;12.472;2023-06-14T00:25:46;384.90;2329.60
26272;DHT22;13997;48.902;12.472;2023-06-14T00:28:12;384.90;2329.60
26272;DHT22;13997;48.902;12.472;2023-06-14T00:30:38;384.80;2329.60
26272;DHT22;13997;48.902;12.472;2023-06-14T00:33:03;384.80;2329.60
26272;DHT22;13997;48.902;12.472;2023-06-14T00:35:29;384.80;2329.60
26272;DHT22;13997;48.902;12.472;2023-06-14T00:37:55;384.80;2329.60
26272;DHT22;13997;48.902;12.472;2023-06-14T00:40:21;384.70;2329.60
26272;DHT22;13997;48.902;12.472;2023-06-14T00:42:47;384.60;2329.60
26272;DHT22;13997;48.902;12.472;2023-06-14T00:45:13;384.60;2329.60
26272;DHT22;13997;48.902;12.472;2023-06-14T00:47:41;384.50;2329.60
26272;DHT22;13997;48.902;12.472;2023-06-14T00:50:07;384.50;2329.60
26272;DHT22;13997;48.902;12.472;2023-06-14T00:52:34;384.50;2329.60
26272;DHT22;13997;48.902;12.472;2023-06-14T00:55:00;384.40;2329.60
26272;DHT22;13997;48.902;12.472;2023-06-14T00:57:27;384.40;2329.60
26272;DHT22;13997;48.902;12.472;2023-06-14T00:59:52;384.30;2329.60
26272;DHT22;13997;48.902;12.472;2023-06-14T01:02:18;384.30;2329.60
26272;DHT22;13997;48.902;12.472;2023-06-14T01:04:47;384.30;2329.60
26272;DHT22;13997;48.902;12.472;2023-06-14T01:07:23;384.20;2329.60
26272;DHT22;13997;48.902;12.472;2023-06-14T01:10:19;384.20;2329.60
26272;DHT22;13997;48.902;12.472;2023-06-14T01:15:47;384.20;2329.60
26272;DHT22;13997;48.902;12.472;2023-06-14T01:18:13;384.10;2329.60
26272;DHT22;13997;48.902;12.472;2023-06-14T01:20:46;384.10;2329.60
26272;DHT22;13997;48.902;12.472;2023-06-14T01:23:17;384.00;2329.60
26272;DHT22;13997;48.902;12.472;2023-06-14T01:25:43;384.00;2329.60
26272;DHT22;13997;48.902;12.472;2023-06-14T01:28:10;359.30;2329.60
26272;DHT22;13997;48.902;12.472;2023-06-14T01:30:38;359.20;2329.60
26272;DHT22;13997;48.902;12.472;2023-06-14T01:33:04;359.20;2329.60
26272;DHT22;13997;48.902;12.472;2023-06-14T01:35:31;359.10;2329.60
26272;DHT22;13997;48.902;12.472;2023-06-14T01:37:57;359.10;2329.60
26272;DHT22;13997;48.902;12.472;2023-06-14T01:40:24;359.10;2329.60
26272;DHT22;13997;48.902;12.472;2023-06-14T01:42:50;359.00;2329.60
26272;DHT22;13997;48.902;12.472;2023-06-14T01:45:17;359.00;2329.60
26272;DHT22;13997;48.902;12.472;2023-06-14T01:47:44;359.00;2329.60
26272;DHT22;13997;48.902;12.472;2023-06-14T01:50:10;359.00;2329.60
26272;DHT22;13997;48.902;12.472;2023-06-14T01:52:37;358.90;2329.60
26272;DHT22;13997;48.902;12.472;2023-06-14T01:55:04;358.80;2329.60
26272;DHT22;13997;48.902;12.472;2023-06-14T01:57:30;358.70;2329.60
26272;DHT22;13997;48.902;12.472;2023-06-14T01:59:55;358.70;2329.60
26272;DHT22;13997;48.902;12.472;2023-06-14T02:02:21;358.50;2329.60
26272;DHT22;13997;48.902;12.472;2023-06-14T02:04:47;358.50;2329.60
26272;DHT22;13997;48.902;12.472;2023-06-14T02:07:13;358.40;2329.60
26272;DHT22;13997;48.902;12.472;2023-06-14T02:09:40;358.40;2329.60
26272;DHT22;13997;48.902;12.472;2023-06-14T02:12:06;358.40;2329.60
26272;DHT22;13997;48.902;12.472;2023-06-14T02:14:31;333.70;2329.60
26272;DHT22;13997;48.902;12.472;2023-06-14T02:16:57;333.60;2329.60
26272;DHT22;13997;48.902;12.472;2023-06-14T02:19:24;333.60;2329.60
26272;DHT22;13997;48.902;12.472;2023-06-14T02:21:49;333.50;2329.60
26272;DHT22;13997;48.902;12.472;2023-06-14T02:24:15;333.50;2329.60
26272;DHT22;13997;48.902;12.472;2023-06-14T02:26:41;333.40;2329.60
26272;DHT22;13997;48.902;12.472;2023-06-14T02:29:07;333.40;2329.60
26272;DHT22;13997;48.902;12.472;2023-06-14T02:31:36;333.40;2329.60
26272;DHT22;13997;48.902;12.472;2023-06-14T02:34:02;333.40;2329.60
26272;DHT22;13997;48.902;12.472;2023-06-14T02:36:28;333.30;2329.60
26272;DHT22;13997;48.902;12.472;2023-06-14T02:38:56;333.20;2329.60
26272;DHT22;13997;48.902;12.472;2023-06-14T02:41:23;333.20;2329.60
26272;DHT22;13997;48.902;12.472;2023-06-14T02:43:49;333.20;2329.60
26272;DHT22;13997;48.902;12.472;2023-06-14T02:46:15;333.10;2329.60
26272;DHT22;13997;48.902;12.472;2023-06-14T02:48:41;333.10;2329.60
26272;DHT22;13997;48.902;12.472;2023-06-14T02:51:06;333.10;2329.60
26272;DHT22;13997;48.902;12.472;2023-06-14T02:53:34;333.10;2329.60
26272;DHT22;13997;48.902;12.472;2023-06-14T02:56:00;333.00;2329.60
26272;DHT22;13997;48.902;12.472;2023-06-14T02:58:26;332.90;2329.60
26272;DHT22;13997;48.902;12.472;2023-06-14T03:00:52;332.90;2329.60
26272;DHT22;13997;48.902;12.472;2023-06-14T03:03:21;332.80;2329.60
26272;DHT22;13997;48.902;12.472;2023-06-14T03:05:48;332.80;2329.60
26272;DHT22;13997;48.902;12.472;2023-06-14T03:08:15;308.10;2304.00
26272;DHT22;13997;48.902;12.472;2023-06-14T03:10:48;308.10;2304.00
26272;DHT22;13997;48.902;12.472;2023-06-14T03:13:15;308.10;2304.00
26272;DHT22;13997;48.902;12.472;2023-06-14T03:15:46;308.00;2304.00
26272;DHT22;13997;48.902;12.472;2023-06-14T03:18:13;307.90;2304.00
26272;DHT22;13997;48.902;12.472;2023-06-14T03:20:40;307.90;2304.00
26272;DHT22;13997;48.902;12.472;2023-06-14T03:23:06;307.80;2304.00
26272;DHT22;13997;48.902;12.472;2023-06-14T03:25:32;307.90;2304.00
26272;DHT22;13997;48.902;12.472;2023-06-14T03:28:03;307.90;2304.00
26272;DHT22;13997;48.902;12.472;2023-06-14T03:30:30;307.90;2304.00
26272;DHT22;13997;48.902;12.472;2023-06-14T03:32:56;307.90;2304.00
26272;DHT22;13997;48.902;12.472;2023-06-14T03:35:23;307.80;2304.00
26272;DHT22;13997;48.902;12.472;2023-06-14T03:37:49;307.80;2304.00
26272;DHT22;13997;48.902;12.472;2023-06-14T03:40:16;307.70;2304.00
26272;DHT22;13997;48.902;12.472;2023-06-14T03:42:42;307.70;2304.00
26272;DHT22;13997;48.902;12.472;2023-06-14T03:45:07;307.70;2304.00
26272;DHT22;13997;48.902;12.472;2023-06-14T03:47:34;307.70;2304.00
26272;DHT22;13997;48.902;12.472;2023-06-14T03:50:00;307.70;2304.00
26272;DHT22;13997;48.902;12.472;2023-06-14T03:52:26;307.60;2304.00
26272;DHT22;13997;48.902;12.472;2023-06-14T03:54:52;307.70;2304.00
26272;DHT22;13997;48.902;12.472;2023-06-14T03:57:19;307.60;2304.00
26272;DHT22;13997;48.902;12.472;2023-06-14T03:59:45;307.60;2304.00
26272;DHT22;13997;48.902;12.472;2023-06-14T04:02:10;307.60;2304.00
26272;DHT22;13997;48.902;12.472;2023-06-14T04:04:37;307.50;2304.00
26272;DHT22;13997;48.902;12.472;2023-06-14T04:07:03;307.50;2304.00
26272;DHT22;13997;48.902;12.472;2023-06-14T04:09:31;307.50;2304.00
26272;DHT22;13997;48.902;12.472;2023-06-14T04:11:57;307.60;2304.00
26272;DHT22;13997;48.902;12.472;2023-06-14T04:14:22;307.70;2304.00
26272;DHT22;13997;48.902;12.472;2023-06-14T04:16:49;307.70;2304.00
26272;DHT22;13997;48.902;12.472;2023-06-14T04:19:15;307.80;2304.00
26272;DHT22;13997;48.902;12.472;2023-06-14T04:21:41;307.90;2304.00
26272;DHT22;13997;48.902;12.472;2023-06-14T04:24:07;307.90;2304.00
26272;DHT22;13997;48.902;12.472;2023-06-14T04:26:48;308.00;2304.00
26272;DHT22;13997;48.902;12.472;2023-06-14T04:29:15;308.00;2304.00
26272;DHT22;13997;48.902;12.472;2023-06-14T04:31:45;308.10;2304.00
26272;DHT22;13997;48.902;12.472;2023-06-14T04:34:12;308.10;2304.00
26272;DHT22;13997;48.902;12.472;2023-06-14T04:36:44;332.80;2329.60
26272;DHT22;13997;48.902;12.472;2023-06-14T04:39:15;332.90;2329.60
26272;DHT22;13997;48.902;12.472;2023-06-14T04:41:43;333.00;2329.60
26272;DHT22;13997;48.902;12.472;2023-06-14T04:44:08;333.10;2329.60
26272;DHT22;13997;48.902;12.472;2023-06-14T04:46:35;333.20;2329.60
26272;DHT22;13997;48.902;12.472;2023-06-14T04:49:09;333.30;2329.60
26272;DHT22;13997;48.902;12.472;2023-06-14T04:51:35;333.40;2329.60
26272;DHT22;13997;48.902;12.472;2023-06-14T04:54:02;333.60;2329.60
26272;DHT22;13997;48.902;12.472;2023-06-14T04:56:28;333.60;2329.60
26272;DHT22;13997;48.902;12.472;2023-06-14T04:58:54;333.70;2329.60
26272;DHT22;13997;48.902;12.472;2023-06-14T05:01:22;358.50;2329.60
26272;DHT22;13997;48.902;12.472;2023-06-14T05:03:49;358.50;2329.60
26272;DHT22;13997;48.902;12.472;2023-06-14T05:06:15;358.60;2329.60
26272;DHT22;13997;48.902;12.472;2023-06-14T05:08:41;358.70;2329.60
26272;DHT22;13997;48.902;12.472;2023-06-14T05:11:07;358.70;2329.60
26272;DHT22;13997;48.902;12.472;2023-06-14T05:13:33;358.90;2329.60
26272;DHT22;13997;48.902;12.472;2023-06-14T05:15:59;359.00;2329.60
26272;DHT22;13997;48.902;12.472;2023-06-14T05:18:26;359.10;2329.60
26272;DHT22;13997;48.902;12.472;2023-06-14T05:20:51;359.20;2329.60
26272;DHT22;13997;48.902;12.472;2023-06-14T05:23:17;384.00;2329.60
26272;DHT22;13997;48.902;12.472;2023-06-14T05:25:44;384.10;2329.60
26272;DHT22;13997;48.902;12.472;2023-06-14T05:28:10;384.30;2329.60
26272;DHT22;13997;48.902;12.472;2023-06-14T05:30:38;384.40;2329.60
26272;DHT22;13997;48.902;12.472;2023-06-14T05:33:05;384.50;2329.60
26272;DHT22;13997;48.902;12.472;2023-06-14T05:35:30;384.60;2329.60
26272;DHT22;13997;48.902;12.472;2023-06-14T05:37:56;384.80;2329.60
26272;DHT22;13997;48.902;12.472;2023-06-14T05:40:21;384.90;2329.60
26272;DHT22;13997;48.902;12.472;2023-06-14T05:42:47;409.70;2355.20
26272;DHT22;13997;48.902;12.472;2023-06-14T05:45:13;409.70;2355.20
26272;DHT22;13997;48.902;12.472;2023-06-14T05:47:40;409.80;2355.20
26272;DHT22;13997;48.902;12.472;2023-06-14T05:50:06;409.90;2355.20
26272;DHT22;13997;48.902;12.472;2023-06-14T05:52:32;409.90;2355.20
26272;DHT22;13997;48.902;12.472;2023-06-14T05:54:57;410.00;2355.20
26272;DHT22;13997;48.902;12.472;2023-06-14T05:59:49;410.10;2355.20
26272;DHT22;13997;48.902;12.472;2023-06-14T06:02:15;410.50;2355.20
26272;DHT22;13997;48.902;12.472;2023-06-14T06:04:41;435.30;2355.20
26272;DHT22;13997;48.902;12.472;2023-06-14T06:07:06;435.50;2355.20
26272;DHT22;13997;48.902;12.472;2023-06-14T06:09:32;435.60;2355.20
26272;DHT22;13997;48.902;12.472;2023-06-14T06:11:58;435.60;2355.20
26272;DHT22;13997;48.902;12.472;2023-06-14T06:14:23;435.80;2355.20
26272;DHT22;13997;48.902;12.472;2023-06-14T06:16:49;436.00;2355.20
26272;DHT22;13997;48.902;12.472;2023-06-14T06:19:14;460.80;2380.80
26272;DHT22;13997;48.902;12.472;2023-06-14T06:26:32;461.00;2380.80
26272;DHT22;13997;48.902;12.472;2023-06-14T06:28:58;461.40;2380.80
26272;DHT22;13997;48.902;12.472;2023-06-14T06:31:24;461.60;2380.80
26272;DHT22;13997;48.902;12.472;2023-06-14T06:33:51;461.70;2380.80
26272;DHT22;13997;48.902;12.472;2023-06-14T06:36:16;461.70;2380.80
26272;DHT22;13997;48.902;12.472;2023-06-14T06:38:42;461.50;2380.80
26272;DHT22;13997;48.902;12.472;2023-06-14T06:41:07;461.60;2380.80
26272;DHT22;13997;48.902;12.472;2023-06-14T06:43:33;461.60;2380.80
26272;DHT22;13997;48.902;12.472;2023-06-14T06:45:59;486.40;2380.80
26272;DHT22;13997;48.902;12.472;2023-06-14T06:48:24;486.60;2380.80
26272;DHT22;13997;48.902;12.472;2023-06-14T06:50:50;486.70;2380.80
26272;DHT22;13997;48.902;12.472;2023-06-14T06:53:16;487.00;2380.80
26272;DHT22;13997;48.902;12.472;2023-06-14T06:55:43;487.10;2380.80
26272;DHT22;13997;48.902;12.472;2023-06-14T06:58:09;487.20;2380.80
26272;DHT22;13997;48.902;12.472;2023-06-14T07:00:35;487.30;2380.80
26272;DHT22;13997;48.902;12.472;2023-06-14T07:03:00;487.20;2380.80
26272;DHT22;13997;48.902;12.472;2023-06-14T07:05:26;487.30;2380.80
26272;DHT22;13997;48.902;12.472;2023-06-14T07:07:52;512.00;2380.80
26272;DHT22;13997;48.902;12.472;2023-06-14T07:10:18;487.20;2380.80
26272;DHT22;13997;48.902;12.472;2023-06-14T07:22:40;487.30;2380.80
26272;DHT22;13997;48.902;12.472;2023-06-14T09:07:49;512.90;2380.80
26272;DHT22;13997;48.902;12.472;2023-06-14T09:10:16;640.00;2176.00
26272;DHT22;13997;48.902;12.472;2023-06-14T09:12:42;640.10;2176.00
26272;DHT22;13997;48.902;12.472;2023-06-14T09:15:08;640.00;2176.00
26272;DHT22;13997;48.902;12.472;2023-06-14T09:17:38;640.00;2124.80
26272;DHT22;13997;48.902;12.472;2023-06-14T09:20:05;640.00;2073.60
26272;DHT22;13997;48.902;12.472;2023-06-14T09:22:34;640.10;2022.40
26272;DHT22;13997;48.902;12.472;2023-06-14T09:25:00;640.20;1971.20
26272;DHT22;13997;48.902;12.472;2023-06-14T11:52:05;640.20;1920.00
26272;DHT22;13997;48.902;12.472;2023-06-14T11:54:32;589.10;2022.40
26272;DHT22;13997;48.902;12.472;2023-06-14T11:56:58;589.00;2048.00
26272;DHT22;13997;48.902;12.472;2023-06-14T11:59:24;588.90;2048.00
26272;DHT22;13997;48.902;12.472;2023-06-14T12:01:52;588.90;2048.00
26272;DHT22;13997;48.902;12.472;2023-06-14T12:04:26;588.80;2048.00
26272;DHT22;13997;48.902;12.472;2023-06-14T12:06:52;564.10;2048.00
26272;DHT22;13997;48.902;12.472;2023-06-14T12:09:21;564.00;2048.00
26272;DHT22;13997;48.902;12.472;2023-06-14T12:11:49;564.00;2022.40
26272;DHT22;13997;48.902;12.472;2023-06-14T12:14:15;564.00;2073.60
26272;DHT22;13997;48.902;12.472;2023-06-14T12:16:42;564.10;2048.00
26272;DHT22;13997;48.902;12.472;2023-06-14T12:19:16;588.90;2048.00
26272;DHT22;13997;48.902;12.472;2023-06-14T12:21:45;589.10;2048.00
26272;DHT22;13997;48.902;12.472;2023-06-14T12:24:12;589.30;2048.00
26272;DHT22;13997;48.902;12.472;2023-06-14T12:26:38;589.30;1996.80
26272;DHT22;13997;48.902;12.472;2023-06-14T12:29:06;589.30;1971.20
26272;DHT22;13997;48.902;12.472;2023-06-14T12:31:32;589.30;1971.20
26272;DHT22;13997;48.902;12.472;2023-06-14T12:33:58;589.50;1945.60
26272;DHT22;13997;48.902;12.472;2023-06-14T12:36:24;589.70;1996.80
26272;DHT22;13997;48.902;12.472;2023-06-14T12:38:51;589.60;1996.80
26272;DHT22;13997;48.902;12.472;2023-06-14T12:41:19;589.50;1945.60
26272;DHT22;13997;48.902;12.472;2023-06-14T12:43:46;589.60;1971.20
26272;DHT22;13997;48.902;12.472;2023-06-14T12:46:12;614.50;1971.20
26272;DHT22;13997;48.902;12.472;2023-06-14T12:48:38;614.50;1920.00
26272;DHT22;13997;48.902;12.472;2023-06-14T12:51:03;614.50;1971.20
26272;DHT22;13997;48.902;12.472;2023-06-14T12:53:29;614.50;1945.60
26272;DHT22;13997;48.902;12.472;2023-06-14T12:55:54;614.50;1894.40
26272;DHT22;13997;48.902;12.472;2023-06-14T12:58:20;614.50;1945.60
26272;DHT22;13997;48.902;12.472;2023-06-14T13:00:46;614.60;1843.20
26272;DHT22;13997;48.902;12.472;2023-06-14T13:03:12;614.70;1894.40
26272;DHT22;13997;48.902;12.472;2023-06-14T13:05:37;614.90;1792.00
26272;DHT22;13997;48.902;12.472;2023-06-14T13:08:06;615.20;1817.60
26272;DHT22;13997;48.902;12.472;2023-06-14T13:10:34;640.20;1843.20
26272;DHT22;13997;48.902;12.472;2023-06-14T13:13:00;640.10;1766.40
26272;DHT22;13997;48.902;12.472;2023-06-14T13:15:26;640.10;1740.80
26272;DHT22;13997;48.902;12.472;2023-06-14T13:17:52;615.20;1766.40
26272;DHT22;13997;48.902;12.472;2023-06-14T13:20:18;615.30;1817.60
26272;DHT22;13997;48.902;12.472;2023-06-14T13:22:44;615.20;1792.00
26272;DHT22;13997;48.902;12.472;2023-06-14T13:25:09;640.00;1766.40
26272;DHT22;13997;48.902;12.472;2023-06-14T13:27:35;640.10;1766.40
26272;DHT22;13997;48.902;12.472;2023-06-14T13:30:02;640.40;1740.80
26272;DHT22;13997;48.902;12.472;2023-06-14T13:32:28;640.20;1766.40
26272;DHT22;13997;48.902;12.472;2023-06-14T13:34:53;640.30;1792.00
26272;DHT22;13997;48.902;12.472;2023-06-14T13:37:19;640.40;1766.40
26272;DHT22;13997;48.902;12.472;2023-06-14T13:39:45;640.60;1740.80
26272;DHT22;13997;48.902;12.472;2023-06-14T13:42:10;640.60;1740.80
26272;DHT22;13997;48.902;12.472;2023-06-14T13:44:36;640.40;1740.80
26272;DHT22;13997;48.902;12.472;2023-06-14T13:47:02;640.40;1740.80
26272;DHT22;13997;48.902;12.472;2023-06-14T13:49:28;640.40;1715.20
26272;DHT22;13997;48.902;12.472;2023-06-14T13:51:53;640.30;1689.60
26272;DHT22;13997;48.902;12.472;2023-06-14T13:54:20;640.20;1664.00
26272;DHT22;13997;48.902;12.472;2023-06-14T13:56:46;640.00;1715.20
26272;DHT22;13997;48.902;12.472;2023-06-14T13:59:13;615.30;1740.80
26272;DHT22;13997;48.902;12.472;2023-06-14T14:01:39;640.10;1766.40
26272;DHT22;13997;48.902;12.472;2023-06-14T14:04:05;640.30;1766.40
26272;DHT22;13997;48.902;12.472;2023-06-14T14:06:31;640.40;1792.00
26272;DHT22;13997;48.902;12.472;2023-06-14T14:08:57;640.40;1766.40
26272;DHT22;13997;48.902;12.472;2023-06-14T14:11:23;640.40;1766.40
26272;DHT22;13997;48.902;12.472;2023-06-14T14:13:48;640.60;1792.00
26272;DHT22;13997;48.902;12.472;2023-06-14T14:16:15;640.40;1689.60
26272;DHT22;13997;48.902;12.472;2023-06-14T14:18:40;640.60;1740.80
26272;DHT22;13997;48.902;12.472;2023-06-14T14:21:06;640.80;1689.60
26272;DHT22;13997;48.902;12.472;2023-06-14T14:23:31;640.70;1689.60
26272;DHT22;13997;48.902;12.472;2023-06-14T14:25:57;640.70;1689.60
26272;DHT22;13997;48.902;12.472;2023-06-14T14:28:23;640.60;1664.00
26272;DHT22;13997;48.902;12.472;2023-06-14T14:30:48;640.30;1638.40
26272;DHT22;13997;48.902;12.472;2023-06-14T14:33:15;640.10;1664.00
26272;DHT22;13997;48.902;12.472;2023-06-14T14:35:46;640.20;1715.20
26272;DHT22;13997;48.902;12.472;2023-06-14T14:38:12;640.10;1689.60
26272;DHT22;13997;48.902;12.472;2023-06-14T14:40:39;640.00;1715.20
26272;DHT22;13997;48.902;12.472;2023-06-14T14:43:05;615.30;1740.80
26272;DHT22;13997;48.902;12.472;2023-06-14T14:45:31;640.00;1766.40
26272;DHT22;13997;48.902;12.472;2023-06-14T14:47:56;615.30;1740.80
26272;DHT22;13997;48.902;12.472;2023-06-14T14:50:22;615.10;1766.40
26272;DHT22;13997;48.902;12.472;2023-06-14T14:52:48;615.00;1792.00
26272;DHT22;13997;48.902;12.472;2023-06-14T14:55:13;614.90;1766.40
26272;DHT22;13997;48.902;12.472;2023-06-14T14:57:39;614.80;1792.00
26272;DHT22;13997;48.902;12.472;2023-06-14T15:00:06;614.80;1792.00
26272;DHT22;13997;48.902;12.472;2023-06-14T15:02:31;614.70;1817.60
26272;DHT22;13997;48.902;12.472;2023-06-14T15:04:57;614.60;1792.00
26272;DHT22;13997;48.902;12.472;2023-06-14T15:07:30;614.60;1817.60
26272;DHT22;13997;48.902;12.472;2023-06-14T15:09:56;589.70;1766.40
26272;DHT22;13997;48.902;12.472;2023-06-14T15:12:22;589.60;1766.40
26272;DHT22;13997;48.902;12.472;2023-06-14T15:14:51;589.30;1792.00
26272;DHT22;13997;48.902;12.472;2023-06-14T15:17:18;589.10;1817.60
26272;DHT22;13997;48.902;12.472;2023-06-14T15:19:48;589.20;1843.20
26272;DHT22;13997;48.902;12.472;2023-06-14T15:22:14;589.30;1817.60
26272;DHT22;13997;48.902;12.472;2023-06-14T15:24:42;589.40;1792.00
26272;DHT22;13997;48.902;12.472;2023-06-14T15:27:08;589.50;1817.60
26272;DHT22;13997;48.902;12.472;2023-06-14T15:29:35;589.60;1843.20
26272;DHT22;13997;48.902;12.472;2023-06-14T15:32:01;589.60;1817.60
26272;DHT22;13997;48.902;12.472;2023-06-14T15:34:26;614.40;1817.60
26272;DHT22;13997;48.902;12.472;2023-06-14T15:36:52;614.50;1792.00
26272;DHT22;13997;48.902;12.472;2023-06-14T15:39:18;614.50;1792.00
26272;DHT22;13997;48.902;12.472;2023-06-14T15:41:43;614.60;1792.00
26272;DHT22;13997;48.902;12.472;2023-06-14T15:44:09;614.50;1817.60
26272;DHT22;13997;48.902;12.472;2023-06-14T15:46:35;589.70;1792.00
26272;DHT22;13997;48.902;12.472;2023-06-14T15:49:01;589.40;1817.60
26272;DHT22;13997;48.902;12.472;2023-06-14T15:51:28;589.20;1843.20
26272;DHT22;13997;48.902;12.472;2023-06-14T15:53:53;589.10;1894.40
26272;DHT22;13997;48.902;12.472;2023-06-14T15:56:19;589.00;1894.40
26272;DHT22;13997;48.902;12.472;2023-06-14T15:58:44;589.00;1894.40
26272;DHT22;13997;48.902;12.472;2023-06-14T16:01:10;588.90;1920.00
26272;DHT22;13997;48.902;12.472;2023-06-14T16:03:36;588.90;1920.00
26272;DHT22;13997;48.902;12.472;2023-06-14T16:06:01;564.10;1920.00
26272;DHT22;13997;48.902;12.472;2023-06-14T16:08:27;588.80;1920.00
26272;DHT22;13997;48.902;12.472;2023-06-14T16:10:52;588.90;1945.60
26272;DHT22;13997;48.902;12.472;2023-06-14T16:13:18;589.00;1945.60
26272;DHT22;13997;48.902;12.472;2023-06-14T16:15:43;588.90;1894.40
26272;DHT22;13997;48.902;12.472;2023-06-14T16:18:09;588.90;1920.00
26272;DHT22;13997;48.902;12.472;2023-06-14T16:20:35;588.90;1945.60
26272;DHT22;13997;48.902;12.472;2023-06-14T16:23:00;589.00;1945.60
26272;DHT22;13997;48.902;12.472;2023-06-14T16:25:26;589.00;1971.20
26272;DHT22;13997;48.902;12.472;2023-06-14T16:27:52;589.10;1945.60
26272;DHT22;13997;48.902;12.472;2023-06-14T16:30:17;589.10;1945.60
26272;DHT22;13997;48.902;12.472;2023-06-14T16:32:43;589.00;1996.80
26272;DHT22;13997;48.902;12.472;2023-06-14T16:35:08;589.00;1971.20
26272;DHT22;13997;48.902;12.472;2023-06-14T16:37:34;588.90;1971.20
26272;DHT22;13997;48.902;12.472;2023-06-14T16:39:59;588.80;1996.80
26272;DHT22;13997;48.902;12.472;2023-06-14T16:42:25;588.90;1996.80
26272;DHT22;13997;48.902;12.472;2023-06-14T16:44:51;588.90;1971.20
26272;DHT22;13997;48.902;12.472;2023-06-14T16:47:16;588.80;1996.80
26272;DHT22;13997;48.902;12.472;2023-06-14T16:49:42;564.10;1996.80
26272;DHT22;13997;48.902;12.472;2023-06-14T16:52:07;588.80;1996.80
26272;DHT22;13997;48.902;12.472;2023-06-14T16:54:33;588.80;1971.20
26272;DHT22;13997;48.902;12.472;2023-06-14T16:56:58;564.10;1945.60
26272;DHT22;13997;48.902;12.472;2023-06-14T16:59:24;564.10;1971.20
26272;DHT22;13997;48.902;12.472;2023-06-14T17:01:50;564.10;1971.20
26272;DHT22;13997;48.902;12.472;2023-06-14T17:04:17;564.10;1945.60
26272;DHT22;13997;48.902;12.472;2023-06-14T17:06:43;564.10;1945.60
26272;DHT22;13997;48.902;12.472;2023-06-14T17:09:08;564.10;1971.20
26272;DHT22;13997;48.902;12.472;2023-06-14T17:11:34;564.10;1945.60
26272;DHT22;13997;48.902;12.472;2023-06-14T17:13:59;564.10;1971.20
26272;DHT22;13997;48.902;12.472;2023-06-14T17:16:25;588.80;1920.00
26272;DHT22;13997;48.902;12.472;2023-06-14T17:18:51;588.90;1945.60
26272;DHT22;13997;48.902;12.472;2023-06-14T17:21:17;588.90;1945.60
26272;DHT22;13997;48.902;12.472;2023-06-14T17:23:42;588.80;1945.60
26272;DHT22;13997;48.902;12.472;2023-06-14T17:26:08;588.90;1920.00
26272;DHT22;13997;48.902;12.472;2023-06-14T17:28:34;588.80;1920.00
26272;DHT22;13997;48.902;12.472;2023-06-14T17:31:01;588.80;1945.60
26272;DHT22;13997;48.902;12.472;2023-06-14T17:33:27;588.80;1971.20
26272;DHT22;13997;48.902;12.472;2023-06-14T17:35:52;564.10;1945.60
26272;DHT22;13997;48.902;12.472;2023-06-14T17:38:18;564.10;1971.20
26272;DHT22;13997;48.902;12.472;2023-06-14T17:40:44;564.10;1971.20
26272;DHT22;13997;48.902;12.472;2023-06-14T17:43:09;564.00;1971.20
26272;DHT22;13997;48.902;12.472;2023-06-14T17:45:35;564.00;1945.60
26272;DHT22;13997;48.902;12.472;2023-06-14T17:48:00;564.00;1945.60
26272;DHT22;13997;48.902;12.472;2023-06-14T17:50:26;563.80;1971.20
26272;DHT22;13997;48.902;12.472;2023-06-14T17:52:52;563.80;1971.20
26272;DHT22;13997;48.902;12.472;2023-06-14T17:55:18;563.70;1971.20
26272;DHT22;13997;48.902;12.472;2023-06-14T18:00:10;563.60;1971.20
26272;DHT22;13997;48.902;12.472;2023-06-14T18:02:36;563.20;1996.80
26272;DHT22;13997;48.902;12.472;2023-06-14T18:05:01;538.50;1971.20
26272;DHT22;13997;48.902;12.472;2023-06-14T18:14:46;538.40;1971.20
26272;DHT22;13997;48.902;12.472;2023-06-14T18:17:11;538.20;1996.80
26272;DHT22;13997;48.902;12.472;2023-06-14T18:19:37;538.10;1996.80
26272;DHT22;13997;48.902;12.472;2023-06-14T18:22:03;538.00;2022.40
26272;DHT22;13997;48.902;12.472;2023-06-14T18:24:30;537.90;1996.80
26272;DHT22;13997;48.902;12.472;2023-06-14T18:26:56;537.80;2022.40
26272;DHT22;13997;48.902;12.472;2023-06-14T18:29:21;537.70;2022.40
26272;DHT22;13997;48.902;12.472;2023-06-14T18:31:47;537.70;2022.40
26272;DHT22;13997;48.902;12.472;2023-06-14T18:34:13;537.70;2048.00
26272;DHT22;13997;48.902;12.472;2023-06-14T18:36:38;537.70;2073.60
26272;DHT22;13997;48.902;12.472;2023-06-14T18:39:05;537.70;2073.60
26272;DHT22;13997;48.902;12.472;2023-06-14T18:41:31;537.60;2073.60
26272;DHT22;13997;48.902;12.472;2023-06-14T18:43:57;512.90;2073.60
26272;DHT22;13997;48.902;12.472;2023-06-14T18:46:23;512.80;2073.60
26272;DHT22;13997;48.902;12.472;2023-06-14T18:48:48;512.80;2073.60
26272;DHT22;13997;48.902;12.472;2023-06-14T18:51:14;512.80;2073.60
26272;DHT22;13997;48.902;12.472;2023-06-14T18:53:40;512.70;2073.60
26272;DHT22;13997;48.902;12.472;2023-06-14T18:56:07;512.70;2073.60
26272;DHT22;13997;48.902;12.472;2023-06-14T18:58:32;512.70;2073.60
26272;DHT22;13997;48.902;12.472;2023-06-14T19:00:58;512.60;2099.20
26272;DHT22;13997;48.902;12.472;2023-06-14T19:03:23;512.60;2099.20
26272;DHT22;13997;48.902;12.472;2023-06-14T19:05:49;512.60;2099.20
26272;DHT22;13997;48.902;12.472;2023-06-14T19:08:16;512.50;2099.20